Observation data for Dimmitt on 07/17/2019      Previous  Date       Current Mesonet Observations  Soil Data  Daily Summary Page  Observations in Plain Language
KDMS 170500Z 13007KT 26/12 A3006 RMK A01 T02590122  RH  044%=      5-min Rain = 0
KDMS 170505Z 13008KT 26/12 A3006 RMK A01 T02570124  RH  045%=      5-min Rain = 0
KDMS 170510Z 14007KT 25/13 A3006 RMK A01 T02540125  RH  046%=      5-min Rain = 0
KDMS 170515Z 14007KT 25/13 A3006 RMK A01 T02510125  RH  047%=      5-min Rain = 0
KDMS 170520Z 15008KT 25/13 A3006 RMK A01 T02510125  RH  047%=      5-min Rain = 0
KDMS 170525Z 15009KT 25/13 A3006 RMK A01 T02530126  RH  047%=      5-min Rain = 0
KDMS 170530Z 15009KT 25/13 A3006 RMK A01 T02530127  RH  047%=      5-min Rain = 0
KDMS 170535Z 16009KT 25/13 A3006 RMK A01 T02530128  RH  048%=      5-min Rain = 0
KDMS 170540Z 16009KT 25/13 A3006 RMK A01 T02520130  RH  049%=      5-min Rain = 0
KDMS 170545Z 15009KT 25/13 A3006 RMK A01 T02500131  RH  050%=      5-min Rain = 0
KDMS 170550Z 15009KT 25/13 A3006 RMK A01 T02510133  RH  050%=      5-min Rain = 0
KDMS 170555Z 16010KT 25/13 A3006 RMK A01 T02510134  RH  050%=      5-min Rain = 0
KDMS 170600Z 16010KT 25/14 A3006 RMK A01 T02510136  RH  051%=      5-min Rain = 0
KDMS 170605Z 16009KT 25/14 A3006 RMK A01 T02500138  RH  052%=      5-min Rain = 0
KDMS 170610Z 17009KT 25/14 A3006 RMK A01 T02480139  RH  053%=      5-min Rain = 0
KDMS 170615Z 17008KT 25/14 A3006 RMK A01 T02460140  RH  054%=      5-min Rain = 0
KDMS 170620Z 17008KT 24/14 A3006 RMK A01 T02440140  RH  055%=      5-min Rain = 0
KDMS 170625Z 18007KT 24/14 A3006 RMK A01 T02410139  RH  055%=      5-min Rain = 0
KDMS 170630Z 19007KT 24/14 A3006 RMK A01 T02400140  RH  056%=      5-min Rain = 0
KDMS 170635Z 20007KT 24/14 A3006 RMK A01 T02380142  RH  057%=      5-min Rain = 0
KDMS 170640Z 21006KT 24/14 A3007 RMK A01 T02370144  RH  059%=      5-min Rain = 0
KDMS 170645Z 22006KT 24/15 A3007 RMK A01 T02390146  RH  058%=      5-min Rain = 0
KDMS 170650Z 22005KT 24/15 A3007 RMK A01 T02400146  RH  058%=      5-min Rain = 0
KDMS 170655Z 22005KT 24/15 A3007 RMK A01 T02390145  RH  058%=      5-min Rain = 0
KDMS 170700Z 21006KT 24/15 A3007 RMK A01 T02390145  RH  058%=      5-min Rain = 0
KDMS 170705Z 19007KT 24/15 A3006 RMK A01 T02400145  RH  058%=      5-min Rain = 0
KDMS 170710Z 19008KT 24/15 A3006 RMK A01 T02390145  RH  058%=      5-min Rain = 0
KDMS 170715Z 21008KT 24/15 A3006 RMK A01 T02370145  RH  059%=      5-min Rain = 0
KDMS 170720Z 22007KT 24/15 A3007 RMK A01 T02380146  RH  059%=      5-min Rain = 0
KDMS 170725Z 21007KT 24/15 A3007 RMK A01 T02380146  RH  059%=      5-min Rain = 0
KDMS 170730Z 21006KT 24/15 A3006 RMK A01 T02360145  RH  059%=      5-min Rain = 0
KDMS 170735Z 21008KT 24/15 A3006 RMK A01 T02360145  RH  059%=      5-min Rain = 0
KDMS 170740Z 21008KT 24/14 A3006 RMK A01 T02360144  RH  059%=      5-min Rain = 0
KDMS 170745Z 21008KT 24/14 A3006 RMK A01 T02360144  RH  059%=      5-min Rain = 0
KDMS 170750Z 21008KT 24/14 A3006 RMK A01 T02360144  RH  059%=      5-min Rain = 0
KDMS 170755Z 21008KT 24/14 A3006 RMK A01 T02350144  RH  059%=      5-min Rain = 0
KDMS 170800Z 22007KT 24/14 A3006 RMK A01 T02350143  RH  059%=      5-min Rain = 0
KDMS 170805Z 21007KT 24/14 A3006 RMK A01 T02350143  RH  059%=      5-min Rain = 0
KDMS 170810Z 20006KT 24/14 A3006 RMK A01 T02350144  RH  059%=      5-min Rain = 0
KDMS 170815Z 20006KT 23/14 A3006 RMK A01 T02340144  RH  059%=      5-min Rain = 0
KDMS 170820Z 20007KT 23/14 A3006 RMK A01 T02330143  RH  059%=      5-min Rain = 0
KDMS 170825Z 20007KT 23/14 A3006 RMK A01 T02320143  RH  060%=      5-min Rain = 0
KDMS 170830Z 20007KT 23/14 A3006 RMK A01 T02290142  RH  060%=      5-min Rain = 0
KDMS 170835Z 20007KT 23/14 A3006 RMK A01 T02290143  RH  061%=      5-min Rain = 0
KDMS 170840Z 20007KT 23/14 A3006 RMK A01 T02290143  RH  061%=      5-min Rain = 0
KDMS 170845Z 20008KT 23/14 A3006 RMK A01 T02300144  RH  061%=      5-min Rain = 0
KDMS 170850Z 19009KT 23/15 A3006 RMK A01 T02300145  RH  061%=      5-min Rain = 0
KDMS 170855Z 19009KT 23/14 A3006 RMK A01 T02300144  RH  061%=      5-min Rain = 0
KDMS 170900Z 19010KT 23/14 A3005 RMK A01 T02280143  RH  061%=      5-min Rain = 0
KDMS 170905Z 20010KT 23/14 A3005 RMK A01 T02260144  RH  062%=      5-min Rain = 0
KDMS 170910Z 20010KT 23/14 A3005 RMK A01 T02260144  RH  062%=      5-min Rain = 0
KDMS 170915Z 20009KT 23/15 A3005 RMK A01 T02270145  RH  063%=      5-min Rain = 0
KDMS 170920Z 20008KT 23/14 A3005 RMK A01 T02250144  RH  063%=      5-min Rain = 0
KDMS 170925Z 19009KT 23/14 A3005 RMK A01 T02250142  RH  062%=      5-min Rain = 0
KDMS 170930Z 19009KT 22/14 A3005 RMK A01 T02240140  RH  062%=      5-min Rain = 0
KDMS 170935Z 19009KT 22/14 A3005 RMK A01 T02220141  RH  063%=      5-min Rain = 0
KDMS 170940Z 19009KT 22/14 A3005 RMK A01 T02210142  RH  063%=      5-min Rain = 0
KDMS 170945Z 18009KT 22/14 A3005 RMK A01 T02210144  RH  064%=      5-min Rain = 0
KDMS 170950Z 19009KT 22/15 A3005 RMK A01 T02200145  RH  065%=      5-min Rain = 0
KDMS 170955Z 19009KT 22/15 A3005 RMK A01 T02200145  RH  065%=      5-min Rain = 0
KDMS 171000Z 19009KT 22/15 A3005 RMK A01 T02200146  RH  066%=      5-min Rain = 0
KDMS 171005Z 19009KT 22/15 A3005 RMK A01 T02210147  RH  065%=      5-min Rain = 0
KDMS 171010Z 19009KT 22/15 A3005 RMK A01 T02230147  RH  065%=      5-min Rain = 0
KDMS 171015Z 19010KT 22/15 A3006 RMK A01 T02210147  RH  065%=      5-min Rain = 0
KDMS 171020Z 19010KT 22/15 A3006 RMK A01 T02190147  RH  066%=      5-min Rain = 0
KDMS 171025Z 19009KT 22/15 A3006 RMK A01 T02170147  RH  067%=      5-min Rain = 0
KDMS 171030Z 19009KT 22/15 A3005 RMK A01 T02160147  RH  068%=      5-min Rain = 0
KDMS 171035Z 19010KT 22/15 A3006 RMK A01 T02160147  RH  068%=      5-min Rain = 0
KDMS 171040Z 19010KT 22/15 A3006 RMK A01 T02150147  RH  068%=      5-min Rain = 0
KDMS 171045Z 19010KT 21/15 A3006 RMK A01 T02140147  RH  068%=      5-min Rain = 0
KDMS 171050Z 19010KT 22/15 A3006 RMK A01 T02150146  RH  068%=      5-min Rain = 0
KDMS 171055Z 19010KT 21/15 A3006 RMK A01 T02140146  RH  068%=      5-min Rain = 0
KDMS 171100Z 20010KT 21/15 A3006 RMK A01 T02140146  RH  068%=      5-min Rain = 0
KDMS 171105Z 20011KT 22/15 A3006 RMK A01 T02160145  RH  067%=      5-min Rain = 0
KDMS 171110Z 20011KT 22/15 A3006 RMK A01 T02180145  RH  066%=      5-min Rain = 0
KDMS 171115Z 20011KT 22/14 A3006 RMK A01 T02190144  RH  065%=      5-min Rain = 0
KDMS 171120Z 20012KT 22/14 A3005 RMK A01 T02220144  RH  064%=      5-min Rain = 0
KDMS 171125Z 20012KT 22/15 A3006 RMK A01 T02220145  RH  064%=      5-min Rain = 0
KDMS 171130Z 21012KT 22/15 A3006 RMK A01 T02240146  RH  064%=      5-min Rain = 0
KDMS 171135Z 21011KT 22/15 A3006 RMK A01 T02240147  RH  064%=      5-min Rain = 0
KDMS 171140Z 20011KT 22/15 A3006 RMK A01 T02230147  RH  065%=      5-min Rain = 0
KDMS 171145Z 20011KT 22/15 A3006 RMK A01 T02210146  RH  065%=      5-min Rain = 0
KDMS 171150Z 20012KT 22/15 A3006 RMK A01 T02210147  RH  066%=      5-min Rain = 0
KDMS 171155Z 20012KT 22/15 A3006 RMK A01 T02210147  RH  066%=      5-min Rain = 0
KDMS 171200Z 20011KT 22/15 A3006 RMK A01 T02210148  RH  066%=      5-min Rain = 0
KDMS 171205Z 20011KT 22/15 A3006 RMK A01 T02210149  RH  067%=      5-min Rain = 0
KDMS 171210Z 20011KT 22/15 A3006 RMK A01 T02200149  RH  067%=      5-min Rain = 0
KDMS 171215Z 20011KT 22/15 A3006 RMK A01 T02210149  RH  067%=      5-min Rain = 0
KDMS 171220Z 20011KT 22/15 A3006 RMK A01 T02220150  RH  067%=      5-min Rain = 0
KDMS 171225Z 20010KT 22/15 A3006 RMK A01 T02240151  RH  066%=      5-min Rain = 0
KDMS 171230Z 20010KT 23/15 A3006 RMK A01 T02250152  RH  066%=      5-min Rain = 0
KDMS 171235Z 20010KT 23/15 A3006 RMK A01 T02250152  RH  066%=      5-min Rain = 0
KDMS 171240Z 20010KT 23/15 A3007 RMK A01 T02260153  RH  067%=      5-min Rain = 0
KDMS 171245Z 21011KT 23/16 A3007 RMK A01 T02290155  RH  066%=      5-min Rain = 0
KDMS 171250Z 21011KT 23/16 A3007 RMK A01 T02300156  RH  066%=      5-min Rain = 0
KDMS 171255Z 20010KT 23/16 A3007 RMK A01 T02310156  RH  066%=      5-min Rain = 0
KDMS 171300Z 20010KT 23/16 A3007 RMK A01 T02310156  RH  066%=      5-min Rain = 0
KDMS 171305Z 20010KT 23/16 A3007 RMK A01 T02310157  RH  066%=      5-min Rain = 0
KDMS 171310Z 20010KT 23/16 A3007 RMK A01 T02310158  RH  066%=      5-min Rain = 0
KDMS 171315Z 20010KT 23/16 A3007 RMK A01 T02340159  RH  066%=      5-min Rain = 0
KDMS 171320Z 19011KT 24/16 A3007 RMK A01 T02370160  RH  065%=      5-min Rain = 0
KDMS 171325Z 20012G17KT 24/16 A3007 RMK A01 T02390162  RH  065%=      5-min Rain = 0
KDMS 171330Z 20013KT 24/16 A3007 RMK A01 T02390163  RH  065%=      5-min Rain = 0
KDMS 171335Z 20012KT 24/16 A3007 RMK A01 T02410164  RH  065%=      5-min Rain = 0
KDMS 171340Z 20013KT 24/17 A3007 RMK A01 T02420165  RH  065%=      5-min Rain = 0
KDMS 171345Z 20013KT 24/17 A3008 RMK A01 T02430166  RH  065%=      5-min Rain = 0
KDMS 171350Z 20014G19KT 24/17 A3008 RMK A01 T02430166  RH  065%=      5-min Rain = 0
KDMS 171355Z 20015KT 24/17 A3008 RMK A01 T02420167  RH  066%=      5-min Rain = 0
KDMS 171400Z 20015G21KT 24/17 A3008 RMK A01 T02420167  RH  066%=      5-min Rain = 0
KDMS 171405Z 21016KT 24/17 A3008 RMK A01 T02430167  RH  066%=      5-min Rain = 0
KDMS 171410Z 21015G21KT 25/17 A3008 RMK A01 T02450168  RH  065%=      5-min Rain = 0
KDMS 171415Z 21017KT 25/17 A3008 RMK A01 T02460168  RH  065%=      5-min Rain = 0
KDMS 171420Z 20015G20KT 25/17 A3009 RMK A01 T02500169  RH  064%=      5-min Rain = 0
KDMS 171425Z 21015KT 25/17 A3009 RMK A01 T02530170  RH  063%=      5-min Rain = 0
KDMS 171430Z 21017G22KT 26/17 A3008 RMK A01 T02550170  RH  063%=      5-min Rain = 0
KDMS 171435Z 21017G23KT 26/17 A3008 RMK A01 T02560171  RH  062%=      5-min Rain = 0
KDMS 171440Z 21018KT 26/17 A3008 RMK A01 T02600171  RH  061%=      5-min Rain = 0
KDMS 171445Z 21019G24KT 26/17 A3008 RMK A01 T02630170  RH  060%=      5-min Rain = 0
KDMS 171450Z 21019G24KT 27/17 A3008 RMK A01 T02660170  RH  058%=      5-min Rain = 0
KDMS 171455Z 21018G24KT 27/17 A3008 RMK A01 T02680170  RH  058%=      5-min Rain = 0
KDMS 171500Z 20017KT 27/17 A3008 RMK A01 T02720171  RH  057%=      5-min Rain = 0
KDMS 171505Z 20017KT 28/17 A3008 RMK A01 T02750171  RH  056%=      5-min Rain = 0
KDMS 171510Z 21015G21KT 28/17 A3008 RMK A01 T02810172  RH  054%=      5-min Rain = 0
KDMS 171515Z 21016G22KT 29/17 A3008 RMK A01 T02860172  RH  053%=      5-min Rain = 0
KDMS 171520Z 21017KT 28/17 A3008 RMK A01 T02820169  RH  053%=      5-min Rain = 0
KDMS 171525Z 22017G23KT 29/17 A3008 RMK A01 T02860169  RH  052%=      5-min Rain = 0
KDMS 171530Z 21017G22KT 29/17 A3008 RMK A01 T02880167  RH  050%=      5-min Rain = 0
KDMS 171535Z 21016G22KT 29/17 A3008 RMK A01 T02910167  RH  050%=      5-min Rain = 0
KDMS 171540Z 22017G23KT 29/17 A3008 RMK A01 T02920166  RH  049%=      5-min Rain = 0
KDMS 171545Z 22016KT 29/17 A3008 RMK A01 T02930168  RH  049%=      5-min Rain = 0
KDMS 171550Z 20015G22KT 30/17 A3008 RMK A01 T02980167  RH  047%=      5-min Rain = 0
KDMS 171555Z 21015G20KT 30/17 A3008 RMK A01 T02980166  RH  047%=      5-min Rain = 0
KDMS 171600Z 21016G21KT 30/17 A3008 RMK A01 T03000165  RH  046%=      5-min Rain = 0
KDMS 171605Z 21016G21KT 30/16 A3008 RMK A01 T03030163  RH  045%=      5-min Rain = 0
KDMS 171610Z 22016G22KT 30/16 A3008 RMK A01 T03040161  RH  044%=      5-min Rain = 0
KDMS 171615Z 21016KT 31/16 A3008 RMK A01 T03060162  RH  044%=      5-min Rain = 0
KDMS 171620Z 21016G22KT 31/16 A3008 RMK A01 T03060158  RH  043%=      5-min Rain = 0
KDMS 171625Z 22016KT 31/16 A3008 RMK A01 T03110158  RH  041%=      5-min Rain = 0
KDMS 171630Z 22015G21KT 31/16 A3008 RMK A01 T03120158  RH  041%=      5-min Rain = 0
KDMS 171635Z 21016KT 31/16 A3008 RMK A01 T03120157  RH  041%=      5-min Rain = 0
KDMS 171640Z 21014G19KT 31/16 A3008 RMK A01 T03140156  RH  040%=      5-min Rain = 0
KDMS 171645Z 21014G20KT 32/16 A3008 RMK A01 T03200159  RH  040%=      5-min Rain = 0
KDMS 171650Z 20016G21KT 32/15 A3008 RMK A01 T03180154  RH  039%=      5-min Rain = 0
KDMS 171655Z 20018KT 32/15 A3008 RMK A01 T03200149  RH  037%=      5-min Rain = 0
KDMS 171700Z 20016G23KT 32/15 A3008 RMK A01 T03240151  RH  037%=      5-min Rain = 0
KDMS 171705Z 21016G21KT 32/15 A3007 RMK A01 T03220150  RH  037%=      5-min Rain = 0
KDMS 171710Z 22016G21KT 32/15 A3007 RMK A01 T03220150  RH  037%=      5-min Rain = 0
KDMS 171715Z 22015G21KT 33/15 A3007 RMK A01 T03250151  RH  037%=      5-min Rain = 0
KDMS 171720Z 21016G22KT 33/15 A3007 RMK A01 T03280152  RH  036%=      5-min Rain = 0
KDMS 171725Z 19015G21KT 33/15 A3007 RMK A01 T03290151  RH  036%=      5-min Rain = 0
KDMS 171730Z 18018KT 33/15 A3007 RMK A01 T03330150  RH  035%=      5-min Rain = 0
KDMS 171735Z 18017G24KT 33/15 A3007 RMK A01 T03300152  RH  036%=      5-min Rain = 0
KDMS 171740Z 19018G24KT 33/15 A3007 RMK A01 T03300148  RH  035%=      5-min Rain = 0
KDMS 171745Z 19018KT 33/15 A3007 RMK A01 T03340145  RH  034%=      5-min Rain = 0
KDMS 171750Z 20017G22KT 33/15 A3007 RMK A01 T03330145  RH  034%=      5-min Rain = 0
KDMS 171755Z 19017G22KT 34/15 A3007 RMK A01 T03360145  RH  033%=      5-min Rain = 0
KDMS 171800Z 20017G22KT 34/14 A3007 RMK A01 T03350144  RH  033%=      5-min Rain = 0
KDMS 171805Z 19017G23KT 34/14 A3007 RMK A01 T03360144  RH  033%=      5-min Rain = 0
KDMS 171810Z 18017G23KT 34/14 A3006 RMK A01 T03410143  RH  032%=      5-min Rain = 0
KDMS 171815Z 19017KT 34/14 A3006 RMK A01 T03370143  RH  032%=      5-min Rain = 0
KDMS 171820Z 18019G30KT 34/14 A3006 RMK A01 T03410144  RH  032%=      5-min Rain = 0
KDMS 171825Z 17017G24KT 34/14 A3006 RMK A01 T03380143  RH  032%=      5-min Rain = 0
KDMS 171830Z 18019G24KT 34/14 A3006 RMK A01 T03410144  RH  032%=      5-min Rain = 0
KDMS 171835Z 19018G24KT 34/15 A3006 RMK A01 T03400148  RH  033%=      5-min Rain = 0
KDMS 171840Z 20018G23KT 34/14 A3005 RMK A01 T03390143  RH  032%=      5-min Rain = 0
KDMS 171845Z 18019G26KT 34/15 A3005 RMK A01 T03370145  RH  033%=      5-min Rain = 0
KDMS 171850Z 17017G25KT 34/14 A3005 RMK A01 T03390143  RH  032%=      5-min Rain = 0
KDMS 171855Z 19018G23KT 34/14 A3006 RMK A01 T03400142  RH  032%=      5-min Rain = 0
KDMS 171900Z 19016G23KT 34/15 A3006 RMK A01 T03400145  RH  032%=      5-min Rain = 0
KDMS 171905Z 19016G25KT 34/14 A3005 RMK A01 T03420144  RH  032%=      5-min Rain = 0
KDMS 171910Z 19018G24KT 34/15 A3005 RMK A01 T03390147  RH  033%=      5-min Rain = 0
KDMS 171915Z 20015G20KT 34/15 A3005 RMK A01 T03400147  RH  033%=      5-min Rain = 0
KDMS 171920Z 18020G25KT 35/15 A3005 RMK A01 T03470148  RH  032%=      5-min Rain = 0
KDMS 171925Z 17017G23KT 35/15 A3005 RMK A01 T03460147  RH  032%=      5-min Rain = 0
KDMS 171930Z 18017G25KT 35/15 A3004 RMK A01 T03460145  RH  031%=      5-min Rain = 0
KDMS 171935Z 18017G24KT 34/15 A3004 RMK A01 T03440146  RH  032%=      5-min Rain = 0
KDMS 171940Z 18014G29KT 34/14 A3004 RMK A01 T03420144  RH  032%=      5-min Rain = 0
KDMS 171945Z 21015G21KT 35/14 A3004 RMK A01 T03450141  RH  031%=      5-min Rain = 0
KDMS 171950Z 20017KT 35/14 A3004 RMK A01 T03470141  RH  030%=      5-min Rain = 0
KDMS 171955Z 18015G20KT 35/14 A3004 RMK A01 T03490142  RH  030%=      5-min Rain = 0
KDMS 172000Z 17014G19KT 35/14 A3004 RMK A01 T03450139  RH  030%=      5-min Rain = 0
KDMS 172005Z 21015G24KT 34/14 A3003 RMK A01 T03430140  RH  031%=      5-min Rain = 0
KDMS 172010Z 19016G25KT 35/14 A3003 RMK A01 T03460139  RH  030%=      5-min Rain = 0
KDMS 172015Z 18015G20KT 35/14 A3003 RMK A01 T03480138  RH  029%=      5-min Rain = 0
KDMS 172020Z 18016G22KT 35/14 A3003 RMK A01 T03460138  RH  030%=      5-min Rain = 0
KDMS 172025Z 17016G23KT 35/14 A3003 RMK A01 T03450137  RH  030%=      5-min Rain = 0
KDMS 172030Z 17016KT 35/14 A3002 RMK A01 T03480136  RH  029%=      5-min Rain = 0
KDMS 172035Z 19016G21KT 36/14 A3002 RMK A01 T03580136  RH  028%=      5-min Rain = 0
KDMS 172040Z 19018G24KT 35/13 A3002 RMK A01 T03540133  RH  028%=      5-min Rain = 0
KDMS 172045Z 16016G22KT 35/13 A3002 RMK A01 T03490132  RH  028%=      5-min Rain = 0
KDMS 172050Z 18016KT 35/13 A3002 RMK A01 T03520131  RH  028%=      5-min Rain = 0
KDMS 172055Z 20015G21KT 35/13 A3002 RMK A01 T03540131  RH  027%=      5-min Rain = 0
KDMS 172100Z 18015G22KT 35/13 A3001 RMK A01 T03530130  RH  027%=      5-min Rain = 0
KDMS 172105Z 19017G24KT 35/13 A3001 RMK A01 T03510127  RH  027%=      5-min Rain = 0
KDMS 172110Z 19014G21KT 35/13 A3001 RMK A01 T03490126  RH  027%=      5-min Rain = 0
KDMS 172115Z 19015G20KT 35/13 A3001 RMK A01 T03490126  RH  027%=      5-min Rain = 0
KDMS 172120Z 19016G23KT 36/13 A3001 RMK A01 T03560126  RH  026%=      5-min Rain = 0
KDMS 172125Z 20015G20KT 35/12 A3001 RMK A01 T03500123  RH  026%=      5-min Rain = 0
KDMS 172130Z 19016G21KT 35/12 A3001 RMK A01 T03510123  RH  026%=      5-min Rain = 0
KDMS 172135Z 17015G21KT 35/12 A3001 RMK A01 T03520122  RH  026%=      5-min Rain = 0
KDMS 172140Z 20014G20KT 36/12 A30 RMK A01 T03550123  RH  026%=      5-min Rain = 0
KDMS 172145Z 19014G22KT 35/12 A30 RMK A01 T03530121  RH  025%=      5-min Rain = 0
KDMS 172150Z 20017G24KT 35/12 A30 RMK A01 T03530121  RH  026%=      5-min Rain = 0
KDMS 172155Z 19014G19KT 35/12 A30 RMK A01 T03530120  RH  025%=      5-min Rain = 0
KDMS 172200Z 18015G22KT 36/12 A30 RMK A01 T03570120  RH  025%=      5-min Rain = 0
KDMS 172205Z 17014G20KT 36/12 A30 RMK A01 T03560120  RH  025%=      5-min Rain = 0
KDMS 172210Z 18014G19KT 36/12 A30 RMK A01 T03570116  RH  024%=      5-min Rain = 0
KDMS 172215Z 18013G18KT 35/12 A2999 RMK A01 T03510115  RH  025%=      5-min Rain = 0
KDMS 172220Z 19016G24KT 36/12 A2999 RMK A01 T03560119  RH  025%=      5-min Rain = 0
KDMS 172225Z 18017KT 36/12 A2999 RMK A01 T03590116  RH  024%=      5-min Rain = 0
KDMS 172230Z 18014G19KT 35/12 A2999 RMK A01 T03530117  RH  025%=      5-min Rain = 0
KDMS 172235Z 20014KT 35/12 A2999 RMK A01 T03540118  RH  025%=      5-min Rain = 0
KDMS 172240Z 18013G19KT 35/12 A2999 RMK A01 T03530119  RH  025%=      5-min Rain = 0
KDMS 172245Z 17017G25KT 36/12 A2998 RMK A01 T03550117  RH  025%=      5-min Rain = 0
KDMS 172250Z 16014KT 35/12 A2998 RMK A01 T03520117  RH  025%=      5-min Rain = 0
KDMS 172255Z 17016G27KT 35/11 A2998 RMK A01 T03530113  RH  024%=      5-min Rain = 0
KDMS 172300Z 17016KT 35/11 A2998 RMK A01 T03540113  RH  024%=      5-min Rain = 0
KDMS 172305Z 19015G20KT 35/11 A2998 RMK A01 T03500113  RH  025%=      5-min Rain = 0
KDMS 172310Z 19018KT 36/12 A2998 RMK A01 T03550117  RH  025%=      5-min Rain = 0
KDMS 172315Z 18017KT 35/11 A2998 RMK A01 T03510114  RH  025%=      5-min Rain = 0
KDMS 172320Z 18016KT 35/12 A2998 RMK A01 T03520117  RH  025%=      5-min Rain = 0
KDMS 172325Z 18017G22KT 35/12 A2998 RMK A01 T03510122  RH  026%=      5-min Rain = 0
KDMS 172330Z 19017KT 35/12 A2997 RMK A01 T03510121  RH  026%=      5-min Rain = 0
KDMS 172335Z 18016KT 35/12 A2997 RMK A01 T03500119  RH  026%=      5-min Rain = 0
KDMS 172340Z 18017KT 35/12 A2997 RMK A01 T03490124  RH  027%=      5-min Rain = 0
KDMS 172345Z 17017KT 35/13 A2997 RMK A01 T03480126  RH  027%=      5-min Rain = 0
KDMS 172350Z 16018G23KT 35/13 A2997 RMK A01 T03470125  RH  027%=      5-min Rain = 0
KDMS 172355Z 17019G25KT 35/13 A2996 RMK A01 T03450126  RH  028%=      5-min Rain = 0
KDMS 180000Z 17019G25KT 34/12 A2996 RMK A01 T03440124  RH  027%=      5-min Rain = 0
KDMS 180005Z 17019G24KT 34/13 A2996 RMK A01 T03420126  RH  028%=      5-min Rain = 0
KDMS 180010Z 17017G22KT 34/12 A2996 RMK A01 T03430120  RH  027%=      5-min Rain = 0
KDMS 180015Z 16017G22KT 34/12 A2996 RMK A01 T03440117  RH  026%=      5-min Rain = 0
KDMS 180020Z 17018KT 34/11 A2996 RMK A01 T03410114  RH  026%=      5-min Rain = 0
KDMS 180025Z 17017G22KT 34/12 A2996 RMK A01 T03400117  RH  027%=      5-min Rain = 0
KDMS 180030Z 17017KT 34/12 A2996 RMK A01 T03390119  RH  027%=      5-min Rain = 0
KDMS 180035Z 17017KT 34/12 A2996 RMK A01 T03370121  RH  028%=      5-min Rain = 0
KDMS 180040Z 17015KT 34/12 A2996 RMK A01 T03380123  RH  028%=      5-min Rain = 0
KDMS 180045Z 18016KT 34/13 A2996 RMK A01 T03360126  RH  029%=      5-min Rain = 0
KDMS 180050Z 17015G20KT 33/13 A2996 RMK A01 T03340126  RH  029%=      5-min Rain = 0
KDMS 180055Z 18014KT 34/13 A2996 RMK A01 T03350127  RH  029%=      5-min Rain = 0
KDMS 180100Z 17015KT 33/13 A2996 RMK A01 T03310128  RH  030%=      5-min Rain = 0
KDMS 180105Z 17014KT 33/13 A2996 RMK A01 T03290128  RH  031%=      5-min Rain = 0
KDMS 180110Z 17014KT 33/13 A2996 RMK A01 T03280128  RH  031%=      5-min Rain = 0
KDMS 180115Z 16015KT 33/13 A2996 RMK A01 T03260127  RH  031%=      5-min Rain = 0
KDMS 180120Z 17013G19KT 32/13 A2996 RMK A01 T03240127  RH  031%=      5-min Rain = 0
KDMS 180125Z 16014KT 32/13 A2996 RMK A01 T03230126  RH  031%=      5-min Rain = 0
KDMS 180130Z 16014KT 32/13 A2996 RMK A01 T03210126  RH  032%=      5-min Rain = 0
KDMS 180135Z 16014G19KT 32/12 A2995 RMK A01 T03190124  RH  032%=      5-min Rain = 0
KDMS 180140Z 16013KT 32/13 A2996 RMK A01 T03160125  RH  032%=      5-min Rain = 0
KDMS 180145Z 16013G18KT 31/13 A2995 RMK A01 T03130125  RH  033%=      5-min Rain = 0
KDMS 180150Z 16013KT 31/13 A2996 RMK A01 T03100125  RH  034%=      5-min Rain = 0
KDMS 180155Z 16014KT 31/13 A2996 RMK A01 T03070125  RH  034%=      5-min Rain = 0
KDMS 180200Z 16014KT 31/13 A2996 RMK A01 T03050126  RH  035%=      5-min Rain = 0
KDMS 180205Z 16013KT 30/13 A2996 RMK A01 T03010127  RH  036%=      5-min Rain = 0
KDMS 180210Z 16013KT 30/13 A2996 RMK A01 T02990128  RH  036%=      5-min Rain = 0
KDMS 180215Z 16013KT 30/13 A2997 RMK A01 T02960128  RH  037%=      5-min Rain = 0
KDMS 180220Z 16012KT 29/13 A2997 RMK A01 T02940128  RH  038%=      5-min Rain = 0
KDMS 180225Z 17011KT 29/13 A2997 RMK A01 T02910129  RH  038%=      5-min Rain = 0
KDMS 180230Z 17011KT 29/13 A2997 RMK A01 T02880129  RH  039%=      5-min Rain = 0
KDMS 180235Z 17011KT 29/13 A2998 RMK A01 T02860130  RH  040%=      5-min Rain = 0
KDMS 180240Z 17011KT 29/13 A2998 RMK A01 T02850130  RH  040%=      5-min Rain = 0
KDMS 180245Z 17011KT 28/13 A2998 RMK A01 T02820130  RH  041%=      5-min Rain = 0
KDMS 180250Z 17011KT 28/13 A2998 RMK A01 T02800130  RH  041%=      5-min Rain = 0
KDMS 180255Z 16012KT 28/13 A2998 RMK A01 T02790130  RH  041%=      5-min Rain = 0
KDMS 180300Z 16011KT 28/13 A2998 RMK A01 T02780130  RH  042%=      5-min Rain = 0
KDMS 180305Z 16011KT 28/13 A2998 RMK A01 T02760129  RH  042%=      5-min Rain = 0
KDMS 180310Z 17012KT 28/13 A2998 RMK A01 T02750129  RH  042%=      5-min Rain = 0
KDMS 180315Z 16012KT 27/13 A2998 RMK A01 T02740128  RH  042%=      5-min Rain = 0
KDMS 180320Z 16012KT 27/13 A2998 RMK A01 T02740128  RH  042%=      5-min Rain = 0
KDMS 180325Z 16012KT 27/13 A2998 RMK A01 T02730127  RH  042%=      5-min Rain = 0
KDMS 180330Z 16013KT 27/13 A2998 RMK A01 T02730127  RH  042%=      5-min Rain = 0
KDMS 180335Z 16012KT 27/13 A2998 RMK A01 T02720127  RH  042%=      5-min Rain = 0
KDMS 180340Z 16013KT 27/13 A2998 RMK A01 T02720127  RH  042%=      5-min Rain = 0
KDMS 180345Z 16013G18KT 27/13 A2998 RMK A01 T02720126  RH  042%=      5-min Rain = 0
KDMS 180350Z 16013KT 27/13 A2998 RMK A01 T02730126  RH  042%=      5-min Rain = 0
KDMS 180355Z 16013KT 27/13 A2998 RMK A01 T02720126  RH  042%=      5-min Rain = 0
KDMS 180400Z 16014KT 27/13 A2999 RMK A01 T02710127  RH  043%=      5-min Rain = 0
KDMS 180405Z 16014KT 27/13 A2999 RMK A01 T02690127  RH  043%=      5-min Rain = 0
KDMS 180410Z 16014KT 27/13 A2999 RMK A01 T02690127  RH  043%=      5-min Rain = 0
KDMS 180415Z 17014KT 27/13 A2999 RMK A01 T02690128  RH  043%=      5-min Rain = 0
KDMS 180420Z 17015KT 27/13 A2999 RMK A01 T02690129  RH  044%=      5-min Rain = 0
KDMS 180425Z 17015KT 27/13 A2999 RMK A01 T02690130  RH  044%=      5-min Rain = 0
KDMS 180430Z 17015KT 27/13 A2999 RMK A01 T02690131  RH  044%=      5-min Rain = 0
KDMS 180435Z 17015KT 27/13 A2999 RMK A01 T02690132  RH  045%=      5-min Rain = 0
KDMS 180440Z 17015KT 27/13 A30 RMK A01 T02690133  RH  045%=      5-min Rain = 0
KDMS 180445Z 17016KT 27/14 A30 RMK A01 T02690135  RH  045%=      5-min Rain = 0
KDMS 180450Z 17015KT 27/14 A30 RMK A01 T02690136  RH  046%=      5-min Rain = 0
KDMS 180455Z 17015KT 27/14 A30 RMK A01 T02680138  RH  047%=      5-min Rain = 0

Page generated in 0.0096 seconds.